Pagina principale
METAR-TAF:

METAR-TAF

Aeroporti :

Aeroporto di Parma

Parma, Italia

latitudine: 44-49-17N, longitudine: 010-17-41E, altezza: 50 m

Osservazione

Il bollettino è stato emesso 6 ore e 53 minuti fa, alle 05:00 UTC
Vento 3 kt da ovest/sud-ovest
Temperature 19°C
Umidità 83%
Pressione 1016 hPa
Visibilità 10 km o più
nessuna nube inferiore a 1500 m e nessun cumulonembo

METAR: LIMP 210500Z 24003KT CAVOK 19/16 Q1016

Ora: 13:53 (11:53 UTC)

Previsione

Il bollettino è stato emesso 6 ore e 53 minuti fa, alle 05:00 UTC
Previsione valida dal 21 alle 06 UTC al 22 alle 06 UTC
Vento 5 kt da sud-ovest
Visibilità 10 km o più
nessuna nube inferiore a 1500 m e nessun cumulonembo

TAF: LIMP 210500Z 2106/2206 22005KT CAVOK

Osservazioni e previsioni meteorologiche di più di 4000 aeroporti (messaggi METAR e TAF).

Le stazioni disponibili sono rappresentate dai dischi gialli e rossi sulla carta.

Puntare il mouse per vedere il nome della stazione.

Clicca sopra per visualizzare le osservazioni e previsioni meteorologiche.

Per cambiare la mappa : fare clic sui pulsanti verdi con una croce nera per ingrandire, il pulsante verde con un trattino per diminuire, o sulla freccia verde per le mappe adiacenti.


METAR-TAF: